sensor_id;sensor_type;location;lat;lon;timestamp;P1;durP1;ratioP1;P2;durP2;ratioP2
65463;SDS011;52063;45.110;9.870;2023-06-04T00:00:51;5.80;;;3.60;;
65463;SDS011;52063;45.110;9.870;2023-06-04T00:03:16;3.37;;;2.77;;
65463;SDS011;52063;45.110;9.870;2023-06-04T00:05:42;3.83;;;2.80;;
65463;SDS011;52063;45.110;9.870;2023-06-04T00:08:07;3.23;;;2.73;;
65463;SDS011;52063;45.110;9.870;2023-06-04T00:10:33;3.33;;;3.07;;
65463;SDS011;52063;45.110;9.870;2023-06-04T00:12:59;3.40;;;3.10;;
65463;SDS011;52063;45.110;9.870;2023-06-04T00:15:25;3.13;;;2.92;;
65463;SDS011;52063;45.110;9.870;2023-06-04T00:17:50;3.37;;;2.90;;
65463;SDS011;52063;45.110;9.870;2023-06-04T00:20:16;3.43;;;3.00;;
65463;SDS011;52063;45.110;9.870;2023-06-04T00:22:41;4.30;;;3.30;;
65463;SDS011;52063;45.110;9.870;2023-06-04T00:25:10;3.38;;;3.08;;
65463;SDS011;52063;45.110;9.870;2023-06-04T00:27:36;3.43;;;3.07;;
65463;SDS011;52063;45.110;9.870;2023-06-04T00:30:02;4.03;;;2.50;;
65463;SDS011;52063;45.110;9.870;2023-06-04T00:32:28;3.00;;;2.70;;
65463;SDS011;52063;45.110;9.870;2023-06-04T00:34:54;2.87;;;2.57;;
65463;SDS011;52063;45.110;9.870;2023-06-04T00:37:27;3.40;;;3.10;;
65463;SDS011;52063;45.110;9.870;2023-06-04T00:39:53;6.15;;;2.85;;
65463;SDS011;52063;45.110;9.870;2023-06-04T00:42:18;3.10;;;2.80;;
65463;SDS011;52063;45.110;9.870;2023-06-04T00:44:44;3.38;;;2.90;;
65463;SDS011;52063;45.110;9.870;2023-06-04T00:47:14;3.50;;;3.20;;
65463;SDS011;52063;45.110;9.870;2023-06-04T00:49:40;3.20;;;2.90;;
65463;SDS011;52063;45.110;9.870;2023-06-04T00:52:07;5.00;;;3.20;;
65463;SDS011;52063;45.110;9.870;2023-06-04T00:54:34;3.03;;;2.72;;
65463;SDS011;52063;45.110;9.870;2023-06-04T00:57:00;3.00;;;2.70;;
65463;SDS011;52063;45.110;9.870;2023-06-04T00:59:25;3.77;;;3.30;;
65463;SDS011;52063;45.110;9.870;2023-06-04T01:02:01;3.42;;;3.10;;
65463;SDS011;52063;45.110;9.870;2023-06-04T01:07:05;6.10;;;3.08;;
65463;SDS011;52063;45.110;9.870;2023-06-04T01:09:32;4.00;;;3.05;;
65463;SDS011;52063;45.110;9.870;2023-06-04T01:11:58;5.53;;;3.10;;
65463;SDS011;52063;45.110;9.870;2023-06-04T01:14:24;3.60;;;3.27;;
65463;SDS011;52063;45.110;9.870;2023-06-04T01:17:01;3.28;;;3.00;;
65463;SDS011;52063;45.110;9.870;2023-06-04T01:25:39;4.25;;;3.40;;
65463;SDS011;52063;45.110;9.870;2023-06-04T01:28:11;4.70;;;3.13;;
65463;SDS011;52063;45.110;9.870;2023-06-04T01:30:38;4.30;;;3.10;;
65463;SDS011;52063;45.110;9.870;2023-06-04T01:33:07;3.70;;;3.25;;
65463;SDS011;52063;45.110;9.870;2023-06-04T01:35:37;3.40;;;3.10;;
65463;SDS011;52063;45.110;9.870;2023-06-04T01:38:03;2.80;;;2.60;;
65463;SDS011;52063;45.110;9.870;2023-06-04T01:40:28;3.70;;;3.00;;
65463;SDS011;52063;45.110;9.870;2023-06-04T01:42:54;3.15;;;2.85;;
65463;SDS011;52063;45.110;9.870;2023-06-04T01:45:21;4.03;;;2.70;;
65463;SDS011;52063;45.110;9.870;2023-06-04T01:47:47;5.77;;;2.83;;
65463;SDS011;52063;45.110;9.870;2023-06-04T01:50:12;3.88;;;3.47;;
65463;SDS011;52063;45.110;9.870;2023-06-04T01:52:38;2.90;;;2.70;;
65463;SDS011;52063;45.110;9.870;2023-06-04T01:55:05;3.72;;;3.42;;
65463;SDS011;52063;45.110;9.870;2023-06-04T01:57:32;4.85;;;3.28;;
65463;SDS011;52063;45.110;9.870;2023-06-04T01:59:58;4.63;;;2.70;;
65463;SDS011;52063;45.110;9.870;2023-06-04T02:02:24;4.13;;;2.60;;
65463;SDS011;52063;45.110;9.870;2023-06-04T02:04:50;3.10;;;2.80;;
65463;SDS011;52063;45.110;9.870;2023-06-04T02:07:18;3.20;;;2.90;;
65463;SDS011;52063;45.110;9.870;2023-06-04T02:09:46;3.50;;;3.20;;
65463;SDS011;52063;45.110;9.870;2023-06-04T02:12:12;4.70;;;3.38;;
65463;SDS011;52063;45.110;9.870;2023-06-04T02:14:39;3.88;;;3.00;;
65463;SDS011;52063;45.110;9.870;2023-06-04T02:17:07;3.60;;;2.90;;
65463;SDS011;52063;45.110;9.870;2023-06-04T02:19:41;3.73;;;3.03;;
65463;SDS011;52063;45.110;9.870;2023-06-04T02:22:18;3.38;;;3.05;;
65463;SDS011;52063;45.110;9.870;2023-06-04T02:24:43;3.22;;;2.92;;
65463;SDS011;52063;45.110;9.870;2023-06-04T02:27:09;3.07;;;2.87;;
65463;SDS011;52063;45.110;9.870;2023-06-04T02:29:35;3.72;;;2.55;;
65463;SDS011;52063;45.110;9.870;2023-06-04T02:32:01;5.03;;;2.83;;
65463;SDS011;52063;45.110;9.870;2023-06-04T02:34:27;5.53;;;3.07;;
65463;SDS011;52063;45.110;9.870;2023-06-04T02:36:53;3.25;;;3.00;;
65463;SDS011;52063;45.110;9.870;2023-06-04T02:39:19;3.20;;;2.88;;
65463;SDS011;52063;45.110;9.870;2023-06-04T02:41:45;3.30;;;3.10;;
65463;SDS011;52063;45.110;9.870;2023-06-04T02:44:11;3.33;;;3.03;;
65463;SDS011;52063;45.110;9.870;2023-06-04T02:46:37;3.27;;;2.97;;
65463;SDS011;52063;45.110;9.870;2023-06-04T02:49:02;3.07;;;2.87;;
65463;SDS011;52063;45.110;9.870;2023-06-04T02:51:28;3.35;;;3.10;;
65463;SDS011;52063;45.110;9.870;2023-06-04T02:53:54;4.70;;;3.10;;
65463;SDS011;52063;45.110;9.870;2023-06-04T02:56:20;3.20;;;2.90;;
65463;SDS011;52063;45.110;9.870;2023-06-04T02:58:49;3.40;;;3.10;;
65463;SDS011;52063;45.110;9.870;2023-06-04T03:01:20;5.55;;;2.80;;
65463;SDS011;52063;45.110;9.870;2023-06-04T03:03:48;3.17;;;2.87;;
65463;SDS011;52063;45.110;9.870;2023-06-04T03:06:15;4.32;;;3.00;;
65463;SDS011;52063;45.110;9.870;2023-06-04T03:08:41;4.45;;;3.22;;
65463;SDS011;52063;45.110;9.870;2023-06-04T03:11:07;5.55;;;3.67;;
65463;SDS011;52063;45.110;9.870;2023-06-04T03:13:33;3.80;;;3.33;;
65463;SDS011;52063;45.110;9.870;2023-06-04T03:15:58;5.68;;;3.25;;
65463;SDS011;52063;45.110;9.870;2023-06-04T03:18:29;3.93;;;3.17;;
65463;SDS011;52063;45.110;9.870;2023-06-04T03:20:56;3.85;;;3.45;;
65463;SDS011;52063;45.110;9.870;2023-06-04T03:23:23;3.22;;;2.88;;
65463;SDS011;52063;45.110;9.870;2023-06-04T03:25:49;3.55;;;3.25;;
65463;SDS011;52063;45.110;9.870;2023-06-04T03:28:15;3.70;;;3.37;;
65463;SDS011;52063;45.110;9.870;2023-06-04T03:30:41;3.70;;;3.40;;
65463;SDS011;52063;45.110;9.870;2023-06-04T03:33:07;3.83;;;3.53;;
65463;SDS011;52063;45.110;9.870;2023-06-04T03:35:33;3.85;;;3.45;;
65463;SDS011;52063;45.110;9.870;2023-06-04T03:37:59;6.83;;;3.43;;
65463;SDS011;52063;45.110;9.870;2023-06-04T03:40:25;3.80;;;3.33;;
65463;SDS011;52063;45.110;9.870;2023-06-04T03:42:51;3.33;;;2.90;;
65463;SDS011;52063;45.110;9.870;2023-06-04T03:45:18;3.50;;;3.20;;
65463;SDS011;52063;45.110;9.870;2023-06-04T03:47:45;3.58;;;3.28;;
65463;SDS011;52063;45.110;9.870;2023-06-04T03:50:11;3.55;;;3.00;;
65463;SDS011;52063;45.110;9.870;2023-06-04T03:52:37;3.70;;;2.90;;
65463;SDS011;52063;45.110;9.870;2023-06-04T03:55:03;5.00;;;2.60;;
65463;SDS011;52063;45.110;9.870;2023-06-04T03:57:29;3.13;;;2.80;;
65463;SDS011;52063;45.110;9.870;2023-06-04T03:59:56;2.78;;;2.47;;
65463;SDS011;52063;45.110;9.870;2023-06-04T04:02:22;5.97;;;3.20;;
65463;SDS011;52063;45.110;9.870;2023-06-04T04:04:47;3.20;;;2.90;;
65463;SDS011;52063;45.110;9.870;2023-06-04T04:07:13;3.75;;;2.63;;
65463;SDS011;52063;45.110;9.870;2023-06-04T04:09:40;4.10;;;2.80;;
65463;SDS011;52063;45.110;9.870;2023-06-04T04:12:06;3.80;;;2.60;;
65463;SDS011;52063;45.110;9.870;2023-06-04T04:14:32;3.42;;;3.13;;
65463;SDS011;52063;45.110;9.870;2023-06-04T04:16:58;3.80;;;2.77;;
65463;SDS011;52063;45.110;9.870;2023-06-04T04:19:25;3.08;;;2.78;;
65463;SDS011;52063;45.110;9.870;2023-06-04T04:21:51;3.50;;;3.20;;
65463;SDS011;52063;45.110;9.870;2023-06-04T04:24:25;3.10;;;2.80;;
65463;SDS011;52063;45.110;9.870;2023-06-04T04:26:53;3.40;;;3.10;;
65463;SDS011;52063;45.110;9.870;2023-06-04T04:29:22;3.33;;;3.03;;
65463;SDS011;52063;45.110;9.870;2023-06-04T04:31:50;3.58;;;3.15;;
65463;SDS011;52063;45.110;9.870;2023-06-04T04:34:18;3.13;;;2.80;;
65463;SDS011;52063;45.110;9.870;2023-06-04T04:36:47;3.10;;;2.83;;
65463;SDS011;52063;45.110;9.870;2023-06-04T04:39:19;3.47;;;3.17;;
65463;SDS011;52063;45.110;9.870;2023-06-04T04:41:47;2.87;;;2.67;;
65463;SDS011;52063;45.110;9.870;2023-06-04T04:44:13;3.50;;;3.17;;
65463;SDS011;52063;45.110;9.870;2023-06-04T04:46:38;3.83;;;3.10;;
65463;SDS011;52063;45.110;9.870;2023-06-04T04:49:04;3.30;;;3.00;;
65463;SDS011;52063;45.110;9.870;2023-06-04T04:51:29;4.30;;;3.00;;
65463;SDS011;52063;45.110;9.870;2023-06-04T04:53:57;5.25;;;2.53;;
65463;SDS011;52063;45.110;9.870;2023-06-04T04:56:26;5.10;;;3.30;;
65463;SDS011;52063;45.110;9.870;2023-06-04T04:58:52;3.88;;;2.80;;
65463;SDS011;52063;45.110;9.870;2023-06-04T05:01:19;3.85;;;3.10;;
65463;SDS011;52063;45.110;9.870;2023-06-04T05:03:44;3.40;;;3.10;;
65463;SDS011;52063;45.110;9.870;2023-06-04T05:06:12;3.60;;;3.08;;
65463;SDS011;52063;45.110;9.870;2023-06-04T05:08:38;6.43;;;3.30;;
65463;SDS011;52063;45.110;9.870;2023-06-04T05:11:04;8.68;;;3.17;;
65463;SDS011;52063;45.110;9.870;2023-06-04T05:13:29;4.83;;;3.40;;
65463;SDS011;52063;45.110;9.870;2023-06-04T05:16:00;4.88;;;3.40;;
65463;SDS011;52063;45.110;9.870;2023-06-04T05:18:32;3.78;;;3.30;;
65463;SDS011;52063;45.110;9.870;2023-06-04T05:21:01;4.68;;;3.47;;
65463;SDS011;52063;45.110;9.870;2023-06-04T05:23:30;4.40;;;3.80;;
65463;SDS011;52063;45.110;9.870;2023-06-04T05:25:58;4.78;;;3.92;;
65463;SDS011;52063;45.110;9.870;2023-06-04T05:28:24;3.75;;;3.22;;
65463;SDS011;52063;45.110;9.870;2023-06-04T05:30:53;4.80;;;4.40;;
65463;SDS011;52063;45.110;9.870;2023-06-04T05:33:27;6.77;;;4.10;;
65463;SDS011;52063;45.110;9.870;2023-06-04T05:36:00;4.18;;;3.80;;
65463;SDS011;52063;45.110;9.870;2023-06-04T05:38:30;5.88;;;4.60;;
65463;SDS011;52063;45.110;9.870;2023-06-04T05:41:01;5.07;;;4.45;;
65463;SDS011;52063;45.110;9.870;2023-06-04T05:43:31;5.95;;;5.28;;
65463;SDS011;52063;45.110;9.870;2023-06-04T05:45:57;4.93;;;4.27;;
65463;SDS011;52063;45.110;9.870;2023-06-04T05:48:22;5.93;;;4.30;;
65463;SDS011;52063;45.110;9.870;2023-06-04T05:50:48;5.18;;;4.60;;
65463;SDS011;52063;45.110;9.870;2023-06-04T05:53:14;4.70;;;4.28;;
65463;SDS011;52063;45.110;9.870;2023-06-04T05:55:40;5.50;;;4.83;;
65463;SDS011;52063;45.110;9.870;2023-06-04T05:58:06;5.70;;;5.07;;
65463;SDS011;52063;45.110;9.870;2023-06-04T06:00:32;5.40;;;4.90;;
65463;SDS011;52063;45.110;9.870;2023-06-04T06:02:57;5.20;;;4.70;;
65463;SDS011;52063;45.110;9.870;2023-06-04T06:05:36;5.40;;;4.78;;
65463;SDS011;52063;45.110;9.870;2023-06-04T06:08:02;9.33;;;6.30;;
65463;SDS011;52063;45.110;9.870;2023-06-04T06:10:29;7.72;;;4.97;;
65463;SDS011;52063;45.110;9.870;2023-06-04T06:12:55;8.05;;;5.78;;
65463;SDS011;52063;45.110;9.870;2023-06-04T06:15:20;6.27;;;5.43;;
65463;SDS011;52063;45.110;9.870;2023-06-04T06:17:48;5.70;;;5.20;;
65463;SDS011;52063;45.110;9.870;2023-06-04T06:20:14;6.80;;;5.13;;
65463;SDS011;52063;45.110;9.870;2023-06-04T06:22:44;7.07;;;4.80;;
65463;SDS011;52063;45.110;9.870;2023-06-04T06:25:11;5.30;;;4.80;;
65463;SDS011;52063;45.110;9.870;2023-06-04T06:27:45;6.13;;;4.37;;
65463;SDS011;52063;45.110;9.870;2023-06-04T06:30:12;6.13;;;4.22;;
65463;SDS011;52063;45.110;9.870;2023-06-04T06:32:38;6.30;;;5.70;;
65463;SDS011;52063;45.110;9.870;2023-06-04T06:35:03;6.23;;;5.63;;
65463;SDS011;52063;45.110;9.870;2023-06-04T06:37:29;5.95;;;5.20;;
65463;SDS011;52063;45.110;9.870;2023-06-04T06:39:54;6.13;;;5.37;;
65463;SDS011;52063;45.110;9.870;2023-06-04T06:42:20;5.23;;;4.57;;
65463;SDS011;52063;45.110;9.870;2023-06-04T06:44:47;8.43;;;5.38;;
65463;SDS011;52063;45.110;9.870;2023-06-04T06:47:13;5.43;;;4.93;;
65463;SDS011;52063;45.110;9.870;2023-06-04T06:49:39;5.57;;;4.57;;
65463;SDS011;52063;45.110;9.870;2023-06-04T06:52:05;5.65;;;4.80;;
65463;SDS011;52063;45.110;9.870;2023-06-04T06:54:31;8.07;;;4.80;;
65463;SDS011;52063;45.110;9.870;2023-06-04T06:56:56;5.60;;;4.70;;
65463;SDS011;52063;45.110;9.870;2023-06-04T06:59:22;5.40;;;4.72;;
65463;SDS011;52063;45.110;9.870;2023-06-04T07:01:48;6.37;;;4.97;;
65463;SDS011;52063;45.110;9.870;2023-06-04T07:04:13;5.50;;;4.83;;
65463;SDS011;52063;45.110;9.870;2023-06-04T07:06:39;6.77;;;5.00;;
65463;SDS011;52063;45.110;9.870;2023-06-04T07:09:04;4.20;;;3.80;;
65463;SDS011;52063;45.110;9.870;2023-06-04T07:11:31;4.28;;;3.88;;
65463;SDS011;52063;45.110;9.870;2023-06-04T07:13:56;5.63;;;5.13;;
65463;SDS011;52063;45.110;9.870;2023-06-04T07:16:22;5.70;;;4.47;;
65463;SDS011;52063;45.110;9.870;2023-06-04T07:18:47;5.77;;;5.27;;
65463;SDS011;52063;45.110;9.870;2023-06-04T07:21:16;5.75;;;4.63;;
65463;SDS011;52063;45.110;9.870;2023-06-04T07:23:44;9.60;;;8.05;;
65463;SDS011;52063;45.110;9.870;2023-06-04T07:26:12;7.55;;;6.82;;
65463;SDS011;52063;45.110;9.870;2023-06-04T07:28:37;9.53;;;8.27;;
65463;SDS011;52063;45.110;9.870;2023-06-04T07:31:03;11.30;;;8.47;;
65463;SDS011;52063;45.110;9.870;2023-06-04T07:33:28;8.20;;;7.18;;
65463;SDS011;52063;45.110;9.870;2023-06-04T07:35:54;10.37;;;8.30;;
65463;SDS011;52063;45.110;9.870;2023-06-04T07:38:20;8.27;;;7.30;;
65463;SDS011;52063;45.110;9.870;2023-06-04T07:40:45;10.43;;;7.30;;
65463;SDS011;52063;45.110;9.870;2023-06-04T07:43:12;11.80;;;7.80;;
65463;SDS011;52063;45.110;9.870;2023-06-04T07:45:38;7.90;;;6.97;;
65463;SDS011;52063;45.110;9.870;2023-06-04T07:48:03;8.03;;;6.87;;
65463;SDS011;52063;45.110;9.870;2023-06-04T07:50:29;9.50;;;7.60;;
65463;SDS011;52063;45.110;9.870;2023-06-04T07:52:55;14.13;;;7.37;;
65463;SDS011;52063;45.110;9.870;2023-06-04T07:55:20;8.95;;;7.57;;
65463;SDS011;52063;45.110;9.870;2023-06-04T07:57:46;8.23;;;7.40;;
65463;SDS011;52063;45.110;9.870;2023-06-04T08:00:11;8.37;;;7.37;;
65463;SDS011;52063;45.110;9.870;2023-06-04T08:02:37;7.65;;;6.28;;
65463;SDS011;52063;45.110;9.870;2023-06-04T08:05:03;7.95;;;7.15;;
65463;SDS011;52063;45.110;9.870;2023-06-04T08:07:29;8.13;;;6.67;;
65463;SDS011;52063;45.110;9.870;2023-06-04T08:09:55;7.03;;;6.32;;
65463;SDS011;52063;45.110;9.870;2023-06-04T08:12:21;9.68;;;6.68;;
65463;SDS011;52063;45.110;9.870;2023-06-04T08:14:47;7.43;;;6.25;;
65463;SDS011;52063;45.110;9.870;2023-06-04T08:17:15;10.10;;;6.73;;
65463;SDS011;52063;45.110;9.870;2023-06-04T08:19:40;10.38;;;7.30;;
65463;SDS011;52063;45.110;9.870;2023-06-04T08:22:06;7.83;;;7.03;;
65463;SDS011;52063;45.110;9.870;2023-06-04T08:24:32;16.88;;;7.20;;
65463;SDS011;52063;45.110;9.870;2023-06-04T08:26:57;10.17;;;7.40;;
65463;SDS011;52063;45.110;9.870;2023-06-04T08:29:23;8.97;;;7.07;;
65463;SDS011;52063;45.110;9.870;2023-06-04T08:31:48;8.82;;;7.72;;
65463;SDS011;52063;45.110;9.870;2023-06-04T08:34:14;10.10;;;7.67;;
65463;SDS011;52063;45.110;9.870;2023-06-04T08:36:39;8.23;;;7.43;;
65463;SDS011;52063;45.110;9.870;2023-06-04T08:39:06;7.72;;;7.00;;
65463;SDS011;52063;45.110;9.870;2023-06-04T08:41:37;8.95;;;6.30;;
65463;SDS011;52063;45.110;9.870;2023-06-04T08:44:04;6.65;;;5.95;;
65463;SDS011;52063;45.110;9.870;2023-06-04T08:46:34;6.87;;;5.67;;
65463;SDS011;52063;45.110;9.870;2023-06-04T08:49:04;7.15;;;5.75;;
65463;SDS011;52063;45.110;9.870;2023-06-04T08:51:33;6.20;;;5.60;;
65463;SDS011;52063;45.110;9.870;2023-06-04T08:54:03;6.20;;;5.32;;
65463;SDS011;52063;45.110;9.870;2023-06-04T08:56:33;6.05;;;5.40;;
65463;SDS011;52063;45.110;9.870;2023-06-04T08:59:00;6.37;;;5.30;;
65463;SDS011;52063;45.110;9.870;2023-06-04T09:01:27;6.65;;;5.57;;
65463;SDS011;52063;45.110;9.870;2023-06-04T09:03:53;5.03;;;4.60;;
65463;SDS011;52063;45.110;9.870;2023-06-04T09:06:19;5.07;;;4.65;;
65463;SDS011;52063;45.110;9.870;2023-06-04T09:08:45;7.40;;;5.23;;
65463;SDS011;52063;45.110;9.870;2023-06-04T09:11:11;6.13;;;4.88;;
65463;SDS011;52063;45.110;9.870;2023-06-04T09:13:38;6.30;;;5.03;;
65463;SDS011;52063;45.110;9.870;2023-06-04T09:16:05;6.10;;;5.07;;
65463;SDS011;52063;45.110;9.870;2023-06-04T09:18:31;6.28;;;5.25;;
65463;SDS011;52063;45.110;9.870;2023-06-04T09:21:15;6.00;;;5.45;;
65463;SDS011;52063;45.110;9.870;2023-06-04T09:23:45;6.70;;;5.40;;
65463;SDS011;52063;45.110;9.870;2023-06-04T09:26:10;6.80;;;5.55;;
65463;SDS011;52063;45.110;9.870;2023-06-04T09:28:43;7.97;;;5.33;;
65463;SDS011;52063;45.110;9.870;2023-06-04T09:31:16;9.25;;;6.22;;
65463;SDS011;52063;45.110;9.870;2023-06-04T09:33:42;11.60;;;6.20;;
65463;SDS011;52063;45.110;9.870;2023-06-04T09:36:11;13.15;;;6.63;;
65463;SDS011;52063;45.110;9.870;2023-06-04T09:38:37;9.43;;;6.77;;
65463;SDS011;52063;45.110;9.870;2023-06-04T09:41:16;10.48;;;7.22;;
65463;SDS011;52063;45.110;9.870;2023-06-04T09:43:44;9.63;;;7.15;;
65463;SDS011;52063;45.110;9.870;2023-06-04T09:48:39;8.48;;;6.47;;
65463;SDS011;52063;45.110;9.870;2023-06-04T09:51:08;7.95;;;6.55;;
65463;SDS011;52063;45.110;9.870;2023-06-04T09:53:38;8.68;;;6.35;;
65463;SDS011;52063;45.110;9.870;2023-06-04T09:56:04;7.93;;;6.60;;
65463;SDS011;52063;45.110;9.870;2023-06-04T09:58:31;7.60;;;6.77;;
65463;SDS011;52063;45.110;9.870;2023-06-04T10:00:58;11.80;;;6.90;;
65463;SDS011;52063;45.110;9.870;2023-06-04T10:03:25;12.85;;;6.53;;
65463;SDS011;52063;45.110;9.870;2023-06-04T10:05:58;8.63;;;6.93;;
65463;SDS011;52063;45.110;9.870;2023-06-04T10:08:29;11.93;;;7.03;;
65463;SDS011;52063;45.110;9.870;2023-06-04T10:10:56;9.77;;;6.73;;
65463;SDS011;52063;45.110;9.870;2023-06-04T10:13:23;8.30;;;6.18;;
65463;SDS011;52063;45.110;9.870;2023-06-04T10:15:49;7.28;;;6.57;;
65463;SDS011;52063;45.110;9.870;2023-06-04T10:18:16;10.35;;;8.10;;
65463;SDS011;52063;45.110;9.870;2023-06-04T10:20:42;17.03;;;8.27;;
65463;SDS011;52063;45.110;9.870;2023-06-04T10:23:08;10.65;;;7.88;;
65463;SDS011;52063;45.110;9.870;2023-06-04T10:25:36;15.57;;;7.53;;
65463;SDS011;52063;45.110;9.870;2023-06-04T10:28:03;10.88;;;7.63;;
65463;SDS011;52063;45.110;9.870;2023-06-04T10:30:29;12.53;;;6.87;;
65463;SDS011;52063;45.110;9.870;2023-06-04T10:32:58;10.82;;;7.15;;
65463;SDS011;52063;45.110;9.870;2023-06-04T10:35:31;8.20;;;7.38;;
65463;SDS011;52063;45.110;9.870;2023-06-04T10:40:32;9.10;;;7.25;;
65463;SDS011;52063;45.110;9.870;2023-06-04T10:43:03;8.10;;;6.17;;
65463;SDS011;52063;45.110;9.870;2023-06-04T10:45:33;7.22;;;6.53;;
65463;SDS011;52063;45.110;9.870;2023-06-04T10:48:02;7.72;;;6.35;;
65463;SDS011;52063;45.110;9.870;2023-06-04T10:50:27;8.80;;;6.50;;
65463;SDS011;52063;45.110;9.870;2023-06-04T10:52:54;9.10;;;7.37;;
65463;SDS011;52063;45.110;9.870;2023-06-04T10:55:20;6.90;;;6.20;;
65463;SDS011;52063;45.110;9.870;2023-06-04T11:00:17;8.53;;;6.50;;
65463;SDS011;52063;45.110;9.870;2023-06-04T11:02:50;10.48;;;6.53;;
65463;SDS011;52063;45.110;9.870;2023-06-04T11:05:19;7.30;;;6.60;;
65463;SDS011;52063;45.110;9.870;2023-06-04T11:07:48;8.37;;;6.57;;
65463;SDS011;52063;45.110;9.870;2023-06-04T11:10:15;9.07;;;6.85;;
65463;SDS011;52063;45.110;9.870;2023-06-04T11:12:45;7.78;;;6.90;;
65463;SDS011;52063;45.110;9.870;2023-06-04T11:15:12;9.35;;;7.32;;
65463;SDS011;52063;45.110;9.870;2023-06-04T11:17:48;15.48;;;10.70;;
65463;SDS011;52063;45.110;9.870;2023-06-04T11:20:18;35.50;;;17.47;;
65463;SDS011;52063;45.110;9.870;2023-06-04T11:22:54;25.33;;;15.23;;
65463;SDS011;52063;45.110;9.870;2023-06-04T11:25:21;17.95;;;11.68;;
65463;SDS011;52063;45.110;9.870;2023-06-04T11:27:47;17.70;;;10.38;;
65463;SDS011;52063;45.110;9.870;2023-06-04T11:30:14;12.38;;;8.77;;
65463;SDS011;52063;45.110;9.870;2023-06-04T11:32:39;12.30;;;8.63;;
65463;SDS011;52063;45.110;9.870;2023-06-04T11:35:05;9.82;;;8.30;;
65463;SDS011;52063;45.110;9.870;2023-06-04T11:37:36;15.33;;;8.33;;
65463;SDS011;52063;45.110;9.870;2023-06-04T11:40:01;12.10;;;7.90;;
65463;SDS011;52063;45.110;9.870;2023-06-04T11:42:28;15.35;;;8.13;;
65463;SDS011;52063;45.110;9.870;2023-06-04T11:44:57;10.23;;;8.03;;
65463;SDS011;52063;45.110;9.870;2023-06-04T11:47:23;9.60;;;7.63;;
65463;SDS011;52063;45.110;9.870;2023-06-04T11:49:55;8.80;;;6.97;;
65463;SDS011;52063;45.110;9.870;2023-06-04T11:52:21;8.50;;;6.68;;
65463;SDS011;52063;45.110;9.870;2023-06-04T11:54:47;8.13;;;6.33;;
65463;SDS011;52063;45.110;9.870;2023-06-04T11:57:13;9.32;;;6.25;;
65463;SDS011;52063;45.110;9.870;2023-06-04T11:59:39;6.45;;;5.85;;
65463;SDS011;52063;45.110;9.870;2023-06-04T12:02:04;7.37;;;6.50;;
65463;SDS011;52063;45.110;9.870;2023-06-04T12:04:32;8.05;;;6.05;;
65463;SDS011;52063;45.110;9.870;2023-06-04T12:06:58;8.00;;;6.43;;
65463;SDS011;52063;45.110;9.870;2023-06-04T12:09:30;7.10;;;6.40;;
65463;SDS011;52063;45.110;9.870;2023-06-04T12:12:01;7.68;;;6.05;;
65463;SDS011;52063;45.110;9.870;2023-06-04T12:14:28;6.27;;;5.67;;
65463;SDS011;52063;45.110;9.870;2023-06-04T12:16:57;6.72;;;5.95;;
65463;SDS011;52063;45.110;9.870;2023-06-04T12:19:32;8.18;;;6.03;;
65463;SDS011;52063;45.110;9.870;2023-06-04T12:22:05;6.97;;;5.85;;
65463;SDS011;52063;45.110;9.870;2023-06-04T12:24:32;6.22;;;5.60;;
65463;SDS011;52063;45.110;9.870;2023-06-04T12:27:03;6.07;;;5.57;;
65463;SDS011;52063;45.110;9.870;2023-06-04T12:29:33;6.95;;;6.07;;
65463;SDS011;52063;45.110;9.870;2023-06-04T12:32:02;6.93;;;5.80;;
65463;SDS011;52063;45.110;9.870;2023-06-04T12:34:36;7.80;;;6.07;;
65463;SDS011;52063;45.110;9.870;2023-06-04T12:37:03;7.30;;;6.10;;
65463;SDS011;52063;45.110;9.870;2023-06-04T12:39:31;6.20;;;5.60;;
65463;SDS011;52063;45.110;9.870;2023-06-04T12:41:58;6.20;;;5.63;;
65463;SDS011;52063;45.110;9.870;2023-06-04T12:44:23;6.30;;;5.70;;
65463;SDS011;52063;45.110;9.870;2023-06-04T12:46:49;6.18;;;5.57;;
65463;SDS011;52063;45.110;9.870;2023-06-04T12:49:15;9.68;;;6.35;;
65463;SDS011;52063;45.110;9.870;2023-06-04T12:51:41;8.47;;;6.40;;
65463;SDS011;52063;45.110;9.870;2023-06-04T12:54:06;7.65;;;6.72;;
65463;SDS011;52063;45.110;9.870;2023-06-04T12:56:32;7.23;;;6.30;;
65463;SDS011;52063;45.110;9.870;2023-06-04T12:58:57;7.13;;;5.83;;
65463;SDS011;52063;45.110;9.870;2023-06-04T13:01:23;7.82;;;6.38;;
65463;SDS011;52063;45.110;9.870;2023-06-04T13:03:49;9.63;;;6.07;;
65463;SDS011;52063;45.110;9.870;2023-06-04T13:06:14;9.20;;;6.10;;
65463;SDS011;52063;45.110;9.870;2023-06-04T13:08:40;7.53;;;6.80;;
65463;SDS011;52063;45.110;9.870;2023-06-04T13:11:05;7.03;;;6.30;;
65463;SDS011;52063;45.110;9.870;2023-06-04T13:13:31;9.03;;;5.83;;
65463;SDS011;52063;45.110;9.870;2023-06-04T13:15:57;8.27;;;5.63;;
65463;SDS011;52063;45.110;9.870;2023-06-04T13:18:22;7.67;;;5.40;;
65463;SDS011;52063;45.110;9.870;2023-06-04T13:20:48;6.23;;;5.67;;
65463;SDS011;52063;45.110;9.870;2023-06-04T13:23:16;5.95;;;5.35;;
65463;SDS011;52063;45.110;9.870;2023-06-04T13:25:42;6.55;;;5.60;;
65463;SDS011;52063;45.110;9.870;2023-06-04T13:28:08;7.67;;;5.80;;
65463;SDS011;52063;45.110;9.870;2023-06-04T13:30:37;8.18;;;5.35;;
65463;SDS011;52063;45.110;9.870;2023-06-04T13:33:03;8.43;;;5.38;;
65463;SDS011;52063;45.110;9.870;2023-06-04T13:35:30;6.33;;;5.70;;
65463;SDS011;52063;45.110;9.870;2023-06-04T13:37:56;6.78;;;4.85;;
65463;SDS011;52063;45.110;9.870;2023-06-04T13:40:22;8.57;;;5.38;;
65463;SDS011;52063;45.110;9.870;2023-06-04T13:42:47;7.63;;;4.77;;
65463;SDS011;52063;45.110;9.870;2023-06-04T13:45:13;8.23;;;5.18;;
65463;SDS011;52063;45.110;9.870;2023-06-04T13:47:39;6.00;;;5.40;;
65463;SDS011;52063;45.110;9.870;2023-06-04T13:50:05;6.50;;;5.13;;
65463;SDS011;52063;45.110;9.870;2023-06-04T13:52:31;6.07;;;4.80;;
65463;SDS011;52063;45.110;9.870;2023-06-04T13:54:56;6.20;;;4.67;;
65463;SDS011;52063;45.110;9.870;2023-06-04T13:57:25;6.05;;;5.50;;
65463;SDS011;52063;45.110;9.870;2023-06-04T13:59:51;9.05;;;4.93;;
65463;SDS011;52063;45.110;9.870;2023-06-04T14:02:16;5.50;;;5.00;;
65463;SDS011;52063;45.110;9.870;2023-06-04T14:04:43;5.20;;;4.78;;
65463;SDS011;52063;45.110;9.870;2023-06-04T14:07:09;5.47;;;5.07;;
65463;SDS011;52063;45.110;9.870;2023-06-04T14:09:35;5.13;;;4.63;;
65463;SDS011;52063;45.110;9.870;2023-06-04T14:12:04;5.80;;;4.97;;
65463;SDS011;52063;45.110;9.870;2023-06-04T14:14:30;9.18;;;5.47;;
65463;SDS011;52063;45.110;9.870;2023-06-04T14:17:01;6.20;;;5.60;;
65463;SDS011;52063;45.110;9.870;2023-06-04T14:19:27;6.47;;;5.82;;
65463;SDS011;52063;45.110;9.870;2023-06-04T14:21:53;7.07;;;5.07;;
65463;SDS011;52063;45.110;9.870;2023-06-04T14:24:19;5.87;;;5.27;;
65463;SDS011;52063;45.110;9.870;2023-06-04T14:26:44;5.70;;;5.10;;
65463;SDS011;52063;45.110;9.870;2023-06-04T14:29:10;5.57;;;5.07;;
65463;SDS011;52063;45.110;9.870;2023-06-04T14:31:36;6.10;;;5.40;;
65463;SDS011;52063;45.110;9.870;2023-06-04T14:34:02;6.40;;;5.40;;
65463;SDS011;52063;45.110;9.870;2023-06-04T14:36:28;7.37;;;5.37;;
65463;SDS011;52063;45.110;9.870;2023-06-04T14:38:54;7.05;;;5.53;;
65463;SDS011;52063;45.110;9.870;2023-06-04T14:41:20;6.25;;;5.00;;
65463;SDS011;52063;45.110;9.870;2023-06-04T14:43:45;5.70;;;5.20;;
65463;SDS011;52063;45.110;9.870;2023-06-04T14:46:11;5.50;;;5.00;;
65463;SDS011;52063;45.110;9.870;2023-06-04T14:48:36;6.78;;;5.10;;
65463;SDS011;52063;45.110;9.870;2023-06-04T14:51:02;7.03;;;4.90;;
65463;SDS011;52063;45.110;9.870;2023-06-04T14:53:27;7.83;;;5.10;;
65463;SDS011;52063;45.110;9.870;2023-06-04T14:55:53;7.27;;;5.23;;
65463;SDS011;52063;45.110;9.870;2023-06-04T14:58:18;7.30;;;5.50;;
65463;SDS011;52063;45.110;9.870;2023-06-04T15:00:44;5.70;;;5.10;;